San Nicolas Island, California
Current Conditions -  °F | °C
As of 7:51 PM on Friday 24 Oct 2014 (Local Time) from KAVX Reporting Station
Clear Clear  
Wind Chill: 72°   Ceiling: Unl
Heat Index: 72°   Visibility: 10mi
Dew Point: 28°   Wind: 3mph
Humidity: 20%   Direction: 230°SW
Pressure: 30.01"   Gusts: NA
Location:  33.25°N, 119.45°W
Report Text: KAVX 250251Z AUTO 23003KT 10SM CLR 22/M02 A3001 RMK AO2 SLP136 T02221022 53006
Loading
Personal Weather Stations






























Interactive Weather Map
Tropical Storm Tracking
New forecast layout! Learn more

10-Day Weather Forecast

Advertisements
Track Severe Weather on mobile